sensor_id;sensor_type;location;lat;lon;timestamp;pressure;altitude;pressure_sealevel;temperature;humidity
62600;BME280;48671;48.922;2.346;2023-06-10T00:01:00;100710.97;;;27.89;38.56
62600;BME280;48671;48.922;2.346;2023-06-10T00:03:26;100704.81;;;27.72;39.11
62600;BME280;48671;48.922;2.346;2023-06-10T00:05:51;100711.72;;;27.59;38.71
62600;BME280;48671;48.922;2.346;2023-06-10T00:08:17;100708.59;;;27.47;39.66
62600;BME280;48671;48.922;2.346;2023-06-10T00:10:44;100710.25;;;27.40;39.41
62600;BME280;48671;48.922;2.346;2023-06-10T00:13:10;100704.41;;;27.36;40.10
62600;BME280;48671;48.922;2.346;2023-06-10T00:15:36;100706.25;;;27.36;40.10
62600;BME280;48671;48.922;2.346;2023-06-10T00:18:02;100710.09;;;27.33;39.73
62600;BME280;48671;48.922;2.346;2023-06-10T00:20:28;100709.78;;;27.28;40.43
62600;BME280;48671;48.922;2.346;2023-06-10T00:22:55;100721.78;;;27.24;39.93
62600;BME280;48671;48.922;2.346;2023-06-10T00:25:22;100715.09;;;27.20;40.75
62600;BME280;48671;48.922;2.346;2023-06-10T00:27:47;100709.75;;;27.20;39.75
62600;BME280;48671;48.922;2.346;2023-06-10T00:30:12;100714.13;;;27.21;39.81
62600;BME280;48671;48.922;2.346;2023-06-10T00:32:38;100718.59;;;27.20;40.26
62600;BME280;48671;48.922;2.346;2023-06-10T00:35:04;100708.91;;;27.11;40.24
62600;BME280;48671;48.922;2.346;2023-06-10T00:37:29;100721.78;;;27.16;40.04
62600;BME280;48671;48.922;2.346;2023-06-10T00:39:55;100722.47;;;27.18;40.76
62600;BME280;48671;48.922;2.346;2023-06-10T00:42:21;100726.47;;;27.22;40.17
62600;BME280;48671;48.922;2.346;2023-06-10T00:44:49;100733.66;;;27.21;40.27
62600;BME280;48671;48.922;2.346;2023-06-10T00:47:14;100714.59;;;27.08;40.83
62600;BME280;48671;48.922;2.346;2023-06-10T00:49:40;100718.72;;;26.94;40.58
62600;BME280;48671;48.922;2.346;2023-06-10T00:52:06;100720.59;;;26.85;40.67
62600;BME280;48671;48.922;2.346;2023-06-10T00:54:32;100724.59;;;26.81;41.36
62600;BME280;48671;48.922;2.346;2023-06-10T00:57:00;100731.72;;;26.81;40.95
62600;BME280;48671;48.922;2.346;2023-06-10T00:59:27;100737.56;;;26.76;41.24
62600;BME280;48671;48.922;2.346;2023-06-10T01:01:53;100732.06;;;26.70;41.70
62600;BME280;48671;48.922;2.346;2023-06-10T01:04:19;100742.38;;;26.65;41.03
62600;BME280;48671;48.922;2.346;2023-06-10T01:12:05;100734.63;;;26.37;42.91
62600;BME280;48671;48.922;2.346;2023-06-10T01:14:34;100744.13;;;26.39;42.54
62600;BME280;48671;48.922;2.346;2023-06-10T01:17:00;100737.59;;;26.34;42.43
62600;BME280;48671;48.922;2.346;2023-06-10T01:19:26;100734.75;;;26.35;42.29
62600;BME280;48671;48.922;2.346;2023-06-10T01:21:53;100732.09;;;26.35;41.93
62600;BME280;48671;48.922;2.346;2023-06-10T01:24:20;100737.78;;;26.41;42.22
62600;BME280;48671;48.922;2.346;2023-06-10T01:26:49;100740.47;;;26.41;42.48
62600;BME280;48671;48.922;2.346;2023-06-10T01:29:30;100727.94;;;26.41;42.60
62600;BME280;48671;48.922;2.346;2023-06-10T01:34:44;100735.31;;;26.47;42.43
62600;BME280;48671;48.922;2.346;2023-06-10T01:37:13;100735.31;;;26.47;42.14
62600;BME280;48671;48.922;2.346;2023-06-10T01:39:42;100739.78;;;26.38;43.02
62600;BME280;48671;48.922;2.346;2023-06-10T01:42:08;100741.47;;;26.39;42.80
62600;BME280;48671;48.922;2.346;2023-06-10T01:44:35;100729.09;;;26.30;43.07
62600;BME280;48671;48.922;2.346;2023-06-10T01:47:00;100740.59;;;26.31;42.94
62600;BME280;48671;48.922;2.346;2023-06-10T01:49:26;100739.25;;;26.27;43.10
62600;BME280;48671;48.922;2.346;2023-06-10T01:51:53;100741.75;;;26.28;43.60
62600;BME280;48671;48.922;2.346;2023-06-10T01:54:18;100744.22;;;26.22;42.85
62600;BME280;48671;48.922;2.346;2023-06-10T01:56:44;100745.84;;;26.14;43.54
62600;BME280;48671;48.922;2.346;2023-06-10T01:59:09;100757.22;;;26.17;43.09
62600;BME280;48671;48.922;2.346;2023-06-10T02:01:34;100766.38;;;26.22;42.99
62600;BME280;48671;48.922;2.346;2023-06-10T02:04:00;100771.19;;;26.19;42.53
62600;BME280;48671;48.922;2.346;2023-06-10T02:06:25;100764.38;;;26.16;42.83
62600;BME280;48671;48.922;2.346;2023-06-10T02:08:50;100754.81;;;26.05;42.81
62600;BME280;48671;48.922;2.346;2023-06-10T02:11:16;100767.69;;;26.10;42.98
62600;BME280;48671;48.922;2.346;2023-06-10T02:13:41;100765.84;;;26.10;43.34
62600;BME280;48671;48.922;2.346;2023-06-10T02:16:06;100761.97;;;26.05;42.91
62600;BME280;48671;48.922;2.346;2023-06-10T02:18:32;100761.09;;;25.96;43.04
62600;BME280;48671;48.922;2.346;2023-06-10T02:20:58;100761.75;;;25.90;43.42
62600;BME280;48671;48.922;2.346;2023-06-10T02:23:24;100758.19;;;25.81;43.48
62600;BME280;48671;48.922;2.346;2023-06-10T02:25:49;100757.34;;;25.81;43.72
62600;BME280;48671;48.922;2.346;2023-06-10T02:28:14;100758.25;;;25.72;43.63
62600;BME280;48671;48.922;2.346;2023-06-10T02:30:41;100756.91;;;25.67;44.00
62600;BME280;48671;48.922;2.346;2023-06-10T02:33:07;100760.22;;;25.69;44.15
62600;BME280;48671;48.922;2.346;2023-06-10T02:35:37;100762.22;;;25.67;43.93
62600;BME280;48671;48.922;2.346;2023-06-10T02:38:03;100765.03;;;25.66;44.04
62600;BME280;48671;48.922;2.346;2023-06-10T02:40:29;100755.16;;;25.58;44.14
62600;BME280;48671;48.922;2.346;2023-06-10T02:42:54;100754.97;;;25.52;44.16
62600;BME280;48671;48.922;2.346;2023-06-10T02:45:19;100768.09;;;25.53;44.93
62600;BME280;48671;48.922;2.346;2023-06-10T02:47:45;100763.78;;;25.52;44.40
62600;BME280;48671;48.922;2.346;2023-06-10T02:50:10;100770.94;;;25.52;44.68
62600;BME280;48671;48.922;2.346;2023-06-10T02:52:36;100759.25;;;25.44;44.17
62600;BME280;48671;48.922;2.346;2023-06-10T02:55:01;100759.38;;;25.43;44.51
62600;BME280;48671;48.922;2.346;2023-06-10T02:57:26;100770.88;;;25.43;44.38
62600;BME280;48671;48.922;2.346;2023-06-10T02:59:52;100762.66;;;25.37;44.38
62600;BME280;48671;48.922;2.346;2023-06-10T03:02:18;100769.19;;;25.42;44.45
62600;BME280;48671;48.922;2.346;2023-06-10T03:04:44;100767.06;;;25.46;44.57
62600;BME280;48671;48.922;2.346;2023-06-10T03:07:10;100767.59;;;25.50;44.47
62600;BME280;48671;48.922;2.346;2023-06-10T03:09:36;100756.28;;;25.48;44.57
62600;BME280;48671;48.922;2.346;2023-06-10T03:12:01;100772.47;;;25.54;44.20
62600;BME280;48671;48.922;2.346;2023-06-10T03:14:27;100766.63;;;25.51;44.46
62600;BME280;48671;48.922;2.346;2023-06-10T03:16:53;100766.72;;;25.41;44.64
62600;BME280;48671;48.922;2.346;2023-06-10T03:19:18;100754.44;;;25.30;44.36
62600;BME280;48671;48.922;2.346;2023-06-10T03:21:44;100777.50;;;25.39;44.69
62600;BME280;48671;48.922;2.346;2023-06-10T03:24:10;100769.97;;;25.35;44.47
62600;BME280;48671;48.922;2.346;2023-06-10T03:26:36;100766.25;;;25.28;44.63
62600;BME280;48671;48.922;2.346;2023-06-10T03:29:01;100766.56;;;25.25;44.76
62600;BME280;48671;48.922;2.346;2023-06-10T03:31:26;100771.03;;;25.24;44.76
62600;BME280;48671;48.922;2.346;2023-06-10T03:33:52;100780.72;;;25.25;45.13
62600;BME280;48671;48.922;2.346;2023-06-10T03:36:17;100771.69;;;25.18;44.96
62600;BME280;48671;48.922;2.346;2023-06-10T03:38:42;100771.28;;;25.13;44.95
62600;BME280;48671;48.922;2.346;2023-06-10T03:41:07;100776.03;;;25.09;44.98
62600;BME280;48671;48.922;2.346;2023-06-10T03:43:33;100775.34;;;25.07;45.37
62600;BME280;48671;48.922;2.346;2023-06-10T03:45:58;100777.47;;;25.04;45.73
62600;BME280;48671;48.922;2.346;2023-06-10T03:48:24;100776.41;;;24.96;45.20
62600;BME280;48671;48.922;2.346;2023-06-10T03:50:49;100764.25;;;24.94;45.37
62600;BME280;48671;48.922;2.346;2023-06-10T03:53:16;100774.75;;;24.95;45.41
62600;BME280;48671;48.922;2.346;2023-06-10T03:55:42;100771.56;;;24.92;45.35
62600;BME280;48671;48.922;2.346;2023-06-10T03:58:07;100767.50;;;24.88;45.42
62600;BME280;48671;48.922;2.346;2023-06-10T04:00:32;100777.78;;;24.83;45.42
62600;BME280;48671;48.922;2.346;2023-06-10T04:03:06;100784.78;;;24.84;45.81
62600;BME280;48671;48.922;2.346;2023-06-10T04:05:34;100785.06;;;24.81;45.90
62600;BME280;48671;48.922;2.346;2023-06-10T04:07:59;100775.31;;;24.71;45.66
62600;BME280;48671;48.922;2.346;2023-06-10T04:10:26;100774.94;;;24.66;45.66
62600;BME280;48671;48.922;2.346;2023-06-10T04:12:52;100785.44;;;24.68;46.04
62600;BME280;48671;48.922;2.346;2023-06-10T04:15:17;100786.84;;;24.62;46.06
62600;BME280;48671;48.922;2.346;2023-06-10T04:17:43;100793.31;;;24.60;45.86
62600;BME280;48671;48.922;2.346;2023-06-10T04:20:08;100799.47;;;24.60;45.80
62600;BME280;48671;48.922;2.346;2023-06-10T04:22:35;100798.13;;;24.56;46.29
62600;BME280;48671;48.922;2.346;2023-06-10T04:25:01;100793.66;;;24.47;46.16
62600;BME280;48671;48.922;2.346;2023-06-10T04:27:26;100794.78;;;24.44;46.17
62600;BME280;48671;48.922;2.346;2023-06-10T04:29:52;100795.50;;;24.46;46.15
62600;BME280;48671;48.922;2.346;2023-06-10T04:32:17;100805.13;;;24.47;46.17
62600;BME280;48671;48.922;2.346;2023-06-10T04:34:43;100816.63;;;24.48;46.49
62600;BME280;48671;48.922;2.346;2023-06-10T04:37:08;100811.59;;;24.45;46.42
62600;BME280;48671;48.922;2.346;2023-06-10T04:39:33;100809.47;;;24.39;46.30
62600;BME280;48671;48.922;2.346;2023-06-10T04:41:59;100811.88;;;24.32;46.32
62600;BME280;48671;48.922;2.346;2023-06-10T04:44:25;100807.41;;;24.33;46.45
62600;BME280;48671;48.922;2.346;2023-06-10T04:46:50;100820.16;;;24.29;47.25
62600;BME280;48671;48.922;2.346;2023-06-10T04:49:16;100819.63;;;24.25;46.98
62600;BME280;48671;48.922;2.346;2023-06-10T04:51:41;100825.47;;;24.29;47.10
62600;BME280;48671;48.922;2.346;2023-06-10T04:54:06;100826.59;;;24.36;47.33
62600;BME280;48671;48.922;2.346;2023-06-10T04:56:32;100824.22;;;24.43;47.26
62600;BME280;48671;48.922;2.346;2023-06-10T04:58:57;100815.63;;;24.39;47.19
62600;BME280;48671;48.922;2.346;2023-06-10T05:01:23;100819.16;;;24.40;46.86
62600;BME280;48671;48.922;2.346;2023-06-10T05:03:48;100836.78;;;24.50;47.04
62600;BME280;48671;48.922;2.346;2023-06-10T05:06:14;100831.16;;;24.53;47.10
62600;BME280;48671;48.922;2.346;2023-06-10T05:08:39;100833.81;;;24.53;47.12
62600;BME280;48671;48.922;2.346;2023-06-10T05:11:04;100837.03;;;24.57;46.81
62600;BME280;48671;48.922;2.346;2023-06-10T05:13:30;100835.34;;;24.56;47.10
62600;BME280;48671;48.922;2.346;2023-06-10T05:15:55;100840.81;;;24.55;47.55
62600;BME280;48671;48.922;2.346;2023-06-10T05:18:20;100838.97;;;24.55;47.03
62600;BME280;48671;48.922;2.346;2023-06-10T05:20:46;100825.00;;;24.53;47.70
62600;BME280;48671;48.922;2.346;2023-06-10T05:23:11;100839.09;;;24.63;47.24
62600;BME280;48671;48.922;2.346;2023-06-10T05:25:37;100830.94;;;24.65;47.33
62600;BME280;48671;48.922;2.346;2023-06-10T05:28:02;100834.84;;;24.70;47.00
62600;BME280;48671;48.922;2.346;2023-06-10T05:30:27;100824.38;;;24.69;47.36
62600;BME280;48671;48.922;2.346;2023-06-10T05:32:53;100835.56;;;24.72;47.34
62600;BME280;48671;48.922;2.346;2023-06-10T05:35:18;100847.84;;;24.73;47.10
62600;BME280;48671;48.922;2.346;2023-06-10T05:37:44;100844.19;;;24.74;47.05
62600;BME280;48671;48.922;2.346;2023-06-10T05:40:10;100836.81;;;24.68;47.30
62600;BME280;48671;48.922;2.346;2023-06-10T05:42:36;100837.34;;;24.72;47.20
62600;BME280;48671;48.922;2.346;2023-06-10T05:45:02;100840.88;;;24.72;47.08
62600;BME280;48671;48.922;2.346;2023-06-10T05:47:27;100846.16;;;24.82;46.63
62600;BME280;48671;48.922;2.346;2023-06-10T05:49:53;100847.50;;;24.86;46.66
62600;BME280;48671;48.922;2.346;2023-06-10T05:52:18;100856.03;;;24.90;46.79
62600;BME280;48671;48.922;2.346;2023-06-10T05:54:44;100855.03;;;24.91;46.58
62600;BME280;48671;48.922;2.346;2023-06-10T05:57:09;100849.19;;;24.87;47.04
62600;BME280;48671;48.922;2.346;2023-06-10T05:59:35;100846.91;;;24.92;47.27
62600;BME280;48671;48.922;2.346;2023-06-10T06:02:00;100857.50;;;25.02;47.18
62600;BME280;48671;48.922;2.346;2023-06-10T06:04:26;100848.69;;;25.02;46.81
62600;BME280;48671;48.922;2.346;2023-06-10T06:06:51;100856.69;;;25.02;46.97
62600;BME280;48671;48.922;2.346;2023-06-10T06:09:16;100859.72;;;25.07;46.99
62600;BME280;48671;48.922;2.346;2023-06-10T06:11:42;100853.84;;;25.03;47.41
62600;BME280;48671;48.922;2.346;2023-06-10T06:14:07;100856.75;;;25.10;47.17
62600;BME280;48671;48.922;2.346;2023-06-10T06:16:32;100852.53;;;25.17;46.98
62600;BME280;48671;48.922;2.346;2023-06-10T06:18:58;100855.72;;;25.20;47.53
62600;BME280;48671;48.922;2.346;2023-06-10T06:21:23;100851.09;;;25.22;47.23
62600;BME280;48671;48.922;2.346;2023-06-10T06:23:48;100854.13;;;25.28;46.93
62600;BME280;48671;48.922;2.346;2023-06-10T06:26:14;100857.72;;;25.36;46.88
62600;BME280;48671;48.922;2.346;2023-06-10T06:28:39;100859.72;;;25.34;47.49
62600;BME280;48671;48.922;2.346;2023-06-10T06:31:05;100872.16;;;25.34;47.43
62600;BME280;48671;48.922;2.346;2023-06-10T06:33:30;100863.19;;;25.35;47.22
62600;BME280;48671;48.922;2.346;2023-06-10T06:35:55;100870.19;;;25.36;47.56
62600;BME280;48671;48.922;2.346;2023-06-10T06:38:21;100874.38;;;25.38;47.54
62600;BME280;48671;48.922;2.346;2023-06-10T06:40:51;100866.41;;;25.38;47.57
62600;BME280;48671;48.922;2.346;2023-06-10T06:43:17;100858.72;;;25.35;47.49
62600;BME280;48671;48.922;2.346;2023-06-10T06:45:44;100866.97;;;25.50;47.49
62600;BME280;48671;48.922;2.346;2023-06-10T06:48:10;100865.84;;;25.53;47.73
62600;BME280;48671;48.922;2.346;2023-06-10T06:50:36;100868.91;;;25.58;47.30
62600;BME280;48671;48.922;2.346;2023-06-10T06:53:01;100873.94;;;25.61;47.33
62600;BME280;48671;48.922;2.346;2023-06-10T06:55:26;100881.47;;;25.65;48.02
62600;BME280;48671;48.922;2.346;2023-06-10T06:57:52;100877.47;;;25.69;48.12
62600;BME280;48671;48.922;2.346;2023-06-10T07:00:18;100884.72;;;25.77;47.78
62600;BME280;48671;48.922;2.346;2023-06-10T07:02:43;100875.03;;;25.76;47.44
62600;BME280;48671;48.922;2.346;2023-06-10T07:05:08;100887.19;;;25.71;47.36
62600;BME280;48671;48.922;2.346;2023-06-10T07:07:34;100889.06;;;25.78;48.35
62600;BME280;48671;48.922;2.346;2023-06-10T07:09:59;100883.66;;;25.88;47.68
62600;BME280;48671;48.922;2.346;2023-06-10T07:12:25;100881.13;;;26.04;47.41
62600;BME280;48671;48.922;2.346;2023-06-10T07:14:50;100881.97;;;26.05;47.65
62600;BME280;48671;48.922;2.346;2023-06-10T07:17:17;100876.78;;;26.03;47.62
62600;BME280;48671;48.922;2.346;2023-06-10T07:19:43;100882.47;;;26.08;47.54
62600;BME280;48671;48.922;2.346;2023-06-10T07:22:08;100884.22;;;26.18;47.35
62600;BME280;48671;48.922;2.346;2023-06-10T07:24:34;100881.94;;;26.23;47.15
62600;BME280;48671;48.922;2.346;2023-06-10T07:26:59;100882.78;;;26.31;47.44
62600;BME280;48671;48.922;2.346;2023-06-10T07:29:24;100888.00;;;26.33;47.01
62600;BME280;48671;48.922;2.346;2023-06-10T07:31:50;100872.44;;;26.28;47.28
62600;BME280;48671;48.922;2.346;2023-06-10T07:34:15;100894.19;;;26.42;47.16
62600;BME280;48671;48.922;2.346;2023-06-10T07:36:40;100891.75;;;26.48;46.58
62600;BME280;48671;48.922;2.346;2023-06-10T07:39:06;100893.88;;;26.45;46.50
62600;BME280;48671;48.922;2.346;2023-06-10T07:41:32;100901.22;;;26.43;46.81
62600;BME280;48671;48.922;2.346;2023-06-10T07:43:57;100897.78;;;26.50;46.41
62600;BME280;48671;48.922;2.346;2023-06-10T07:46:23;100903.63;;;26.54;46.43
62600;BME280;48671;48.922;2.346;2023-06-10T07:48:49;100904.66;;;26.61;46.40
62600;BME280;48671;48.922;2.346;2023-06-10T07:51:16;100906.88;;;26.66;46.53
62600;BME280;48671;48.922;2.346;2023-06-10T07:53:41;100905.56;;;26.70;46.19
62600;BME280;48671;48.922;2.346;2023-06-10T07:56:07;100912.94;;;26.76;46.35
62600;BME280;48671;48.922;2.346;2023-06-10T07:58:32;100918.59;;;26.81;46.13
62600;BME280;48671;48.922;2.346;2023-06-10T08:00:57;100909.63;;;26.82;45.70
62600;BME280;48671;48.922;2.346;2023-06-10T08:03:22;100910.91;;;26.78;46.36
62600;BME280;48671;48.922;2.346;2023-06-10T08:05:48;100917.13;;;26.87;46.30
62600;BME280;48671;48.922;2.346;2023-06-10T08:08:13;100910.66;;;26.97;45.74
62600;BME280;48671;48.922;2.346;2023-06-10T08:10:39;100905.81;;;27.01;46.27
62600;BME280;48671;48.922;2.346;2023-06-10T08:13:04;100915.72;;;27.08;46.16
62600;BME280;48671;48.922;2.346;2023-06-10T08:15:29;100917.13;;;27.21;45.46
62600;BME280;48671;48.922;2.346;2023-06-10T08:17:55;100914.09;;;27.24;45.62
62600;BME280;48671;48.922;2.346;2023-06-10T08:20:21;100909.94;;;27.29;45.27
62600;BME280;48671;48.922;2.346;2023-06-10T08:22:47;100914.97;;;27.24;45.02
62600;BME280;48671;48.922;2.346;2023-06-10T08:25:12;100922.97;;;27.33;44.89
62600;BME280;48671;48.922;2.346;2023-06-10T08:27:37;100921.19;;;27.41;45.06
62600;BME280;48671;48.922;2.346;2023-06-10T08:30:03;100920.66;;;27.46;44.40
62600;BME280;48671;48.922;2.346;2023-06-10T08:32:29;100913.66;;;27.53;45.14
62600;BME280;48671;48.922;2.346;2023-06-10T08:34:54;100922.88;;;27.67;44.46
62600;BME280;48671;48.922;2.346;2023-06-10T08:37:20;100921.88;;;27.76;43.92
62600;BME280;48671;48.922;2.346;2023-06-10T08:39:45;100917.91;;;27.80;44.22
62600;BME280;48671;48.922;2.346;2023-06-10T08:44:46;100921.72;;;28.02;42.83
62600;BME280;48671;48.922;2.346;2023-06-10T08:47:16;100923.41;;;28.03;43.10
62600;BME280;48671;48.922;2.346;2023-06-10T08:49:46;100917.25;;;28.03;42.40
62600;BME280;48671;48.922;2.346;2023-06-10T08:52:19;100920.91;;;28.01;42.64
62600;BME280;48671;48.922;2.346;2023-06-10T08:54:59;100922.59;;;28.03;42.61
62600;BME280;48671;48.922;2.346;2023-06-10T08:57:26;100910.22;;;28.10;42.69
62600;BME280;48671;48.922;2.346;2023-06-10T08:59:53;100913.53;;;28.20;43.00
62600;BME280;48671;48.922;2.346;2023-06-10T09:02:19;100925.22;;;28.27;42.39
62600;BME280;48671;48.922;2.346;2023-06-10T09:04:46;100917.03;;;28.29;42.25
62600;BME280;48671;48.922;2.346;2023-06-10T09:07:12;100916.19;;;28.28;42.67
62600;BME280;48671;48.922;2.346;2023-06-10T09:09:39;100913.84;;;28.41;42.56
62600;BME280;48671;48.922;2.346;2023-06-10T09:12:07;100912.13;;;28.57;42.26
62600;BME280;48671;48.922;2.346;2023-06-10T09:14:32;100918.94;;;28.76;41.74
62600;BME280;48671;48.922;2.346;2023-06-10T09:16:58;100918.53;;;28.87;40.81
62600;BME280;48671;48.922;2.346;2023-06-10T09:19:25;100916.06;;;28.85;40.41
62600;BME280;48671;48.922;2.346;2023-06-10T09:21:51;100920.25;;;28.88;40.83
62600;BME280;48671;48.922;2.346;2023-06-10T09:24:18;100913.19;;;28.87;40.63
62600;BME280;48671;48.922;2.346;2023-06-10T09:26:43;100921.00;;;28.97;39.54
62600;BME280;48671;48.922;2.346;2023-06-10T09:29:11;100921.00;;;28.97;39.95
62600;BME280;48671;48.922;2.346;2023-06-10T09:31:38;100920.31;;;29.11;40.19
62600;BME280;48671;48.922;2.346;2023-06-10T09:34:08;100921.63;;;29.15;39.80
62600;BME280;48671;48.922;2.346;2023-06-10T09:36:35;100917.09;;;29.15;39.87
62600;BME280;48671;48.922;2.346;2023-06-10T09:39:01;100912.41;;;29.17;39.82
62600;BME280;48671;48.922;2.346;2023-06-10T09:41:34;100911.38;;;29.27;39.97
62600;BME280;48671;48.922;2.346;2023-06-10T09:44:01;100917.13;;;29.38;39.29
62600;BME280;48671;48.922;2.346;2023-06-10T09:46:31;100921.09;;;29.51;38.82
62600;BME280;48671;48.922;2.346;2023-06-10T09:48:58;100922.88;;;29.58;38.33
62600;BME280;48671;48.922;2.346;2023-06-10T09:51:24;100914.34;;;29.63;38.65
62600;BME280;48671;48.922;2.346;2023-06-10T09:53:52;100918.31;;;29.67;38.09
62600;BME280;48671;48.922;2.346;2023-06-10T09:56:18;100928.69;;;29.70;38.28
62600;BME280;48671;48.922;2.346;2023-06-10T09:58:45;100924.56;;;29.82;37.62
62600;BME280;48671;48.922;2.346;2023-06-10T10:01:12;100928.00;;;29.91;37.35
62600;BME280;48671;48.922;2.346;2023-06-10T10:03:49;100923.69;;;30.05;37.28
62600;BME280;48671;48.922;2.346;2023-06-10T10:06:16;100929.72;;;30.07;36.33
62600;BME280;48671;48.922;2.346;2023-06-10T10:08:42;100932.09;;;30.02;36.66
62600;BME280;48671;48.922;2.346;2023-06-10T10:11:08;100929.34;;;30.10;37.09
62600;BME280;48671;48.922;2.346;2023-06-10T10:13:34;100916.53;;;30.20;36.34
62600;BME280;48671;48.922;2.346;2023-06-10T10:16:04;100923.13;;;30.32;36.81
62600;BME280;48671;48.922;2.346;2023-06-10T10:18:31;100922.75;;;30.36;36.48
62600;BME280;48671;48.922;2.346;2023-06-10T10:21:01;100926.66;;;30.48;36.39
62600;BME280;48671;48.922;2.346;2023-06-10T10:23:42;100921.38;;;30.69;35.62
62600;BME280;48671;48.922;2.346;2023-06-10T10:26:10;100925.91;;;30.84;35.05
62600;BME280;48671;48.922;2.346;2023-06-10T10:28:41;100927.41;;;30.86;34.42
62600;BME280;48671;48.922;2.346;2023-06-10T10:31:12;100928.72;;;30.90;34.17
62600;BME280;48671;48.922;2.346;2023-06-10T10:36:15;100924.63;;;30.94;34.44
62600;BME280;48671;48.922;2.346;2023-06-10T10:38:41;100912.91;;;31.02;34.13
62600;BME280;48671;48.922;2.346;2023-06-10T10:41:08;100925.59;;;31.08;33.07
62600;BME280;48671;48.922;2.346;2023-06-10T10:43:34;100928.75;;;31.12;33.44
62600;BME280;48671;48.922;2.346;2023-06-10T10:46:01;100918.53;;;31.22;33.35
62600;BME280;48671;48.922;2.346;2023-06-10T10:48:29;100909.31;;;31.31;33.01
62600;BME280;48671;48.922;2.346;2023-06-10T10:50:59;100912.91;;;31.53;33.32
62600;BME280;48671;48.922;2.346;2023-06-10T10:53:24;100917.63;;;31.73;32.76
62600;BME280;48671;48.922;2.346;2023-06-10T10:56:00;100903.84;;;31.82;31.97
62600;BME280;48671;48.922;2.346;2023-06-10T10:58:29;100908.94;;;31.92;32.25
62600;BME280;48671;48.922;2.346;2023-06-10T11:00:55;100906.34;;;32.05;31.89
62600;BME280;48671;48.922;2.346;2023-06-10T11:03:20;100908.78;;;32.00;31.61
62600;BME280;48671;48.922;2.346;2023-06-10T11:05:47;100906.50;;;32.04;31.68
62600;BME280;48671;48.922;2.346;2023-06-10T11:08:59;100894.66;;;31.98;31.58
62600;BME280;48671;48.922;2.346;2023-06-10T11:11:00;100902.81;;;32.05;31.32
62600;BME280;48671;48.922;2.346;2023-06-10T11:13:26;100903.53;;;32.20;31.02
62600;BME280;48671;48.922;2.346;2023-06-10T11:15:57;100902.25;;;32.16;30.48
62600;BME280;48671;48.922;2.346;2023-06-10T11:18:24;100895.09;;;31.95;31.24
62600;BME280;48671;48.922;2.346;2023-06-10T11:28:40;100884.78;;;31.56;32.13
62600;BME280;48671;48.922;2.346;2023-06-10T11:31:06;100906.94;;;31.36;32.61
62600;BME280;48671;48.922;2.346;2023-06-10T11:33:31;100908.66;;;31.44;32.93
62600;BME280;48671;48.922;2.346;2023-06-10T11:35:57;100916.72;;;31.65;32.71
62600;BME280;48671;48.922;2.346;2023-06-10T11:38:24;100895.72;;;31.76;32.36
62600;BME280;48671;48.922;2.346;2023-06-10T11:40:50;100904.94;;;31.88;32.52
62600;BME280;48671;48.922;2.346;2023-06-10T11:43:17;100894.75;;;31.83;32.67
62600;BME280;48671;48.922;2.346;2023-06-10T11:45:43;100909.06;;;31.62;32.98
62600;BME280;48671;48.922;2.346;2023-06-10T11:48:09;100905.66;;;31.54;32.77
62600;BME280;48671;48.922;2.346;2023-06-10T11:50:34;100896.88;;;31.66;32.84
62600;BME280;48671;48.922;2.346;2023-06-10T11:53:00;100896.88;;;31.88;30.85
62600;BME280;48671;48.922;2.346;2023-06-10T11:58:17;100899.09;;;32.06;31.99
62600;BME280;48671;48.922;2.346;2023-06-10T12:00:47;100894.53;;;32.06;31.87
62600;BME280;48671;48.922;2.346;2023-06-10T12:03:13;100898.25;;;32.05;31.68
62600;BME280;48671;48.922;2.346;2023-06-10T12:05:39;100893.16;;;32.17;31.10
62600;BME280;48671;48.922;2.346;2023-06-10T12:08:11;100895.56;;;32.40;31.06
62600;BME280;48671;48.922;2.346;2023-06-10T12:10:41;100894.19;;;32.44;31.37
62600;BME280;48671;48.922;2.346;2023-06-10T12:13:08;100889.53;;;32.31;31.13
62600;BME280;48671;48.922;2.346;2023-06-10T12:15:34;100888.53;;;32.39;31.70
62600;BME280;48671;48.922;2.346;2023-06-10T12:18:00;100892.81;;;32.61;31.72
62600;BME280;48671;48.922;2.346;2023-06-10T12:20:30;100892.31;;;32.93;31.02
62600;BME280;48671;48.922;2.346;2023-06-10T12:22:59;100883.31;;;33.14;30.32
62600;BME280;48671;48.922;2.346;2023-06-10T12:25:26;100895.34;;;33.24;29.75
62600;BME280;48671;48.922;2.346;2023-06-10T12:27:54;100896.56;;;33.15;30.19
62600;BME280;48671;48.922;2.346;2023-06-10T12:30:21;100888.31;;;33.23;30.04
62600;BME280;48671;48.922;2.346;2023-06-10T12:32:47;100887.28;;;33.38;30.45
62600;BME280;48671;48.922;2.346;2023-06-10T12:35:16;100880.66;;;33.47;30.64
62600;BME280;48671;48.922;2.346;2023-06-10T12:37:42;100895.78;;;33.41;30.06
62600;BME280;48671;48.922;2.346;2023-06-10T12:40:08;100882.06;;;33.16;30.60
62600;BME280;48671;48.922;2.346;2023-06-10T12:42:35;100888.78;;;32.92;30.88
62600;BME280;48671;48.922;2.346;2023-06-10T12:45:01;100884.13;;;32.66;31.46
62600;BME280;48671;48.922;2.346;2023-06-10T12:47:31;100895.00;;;32.86;31.17
62600;BME280;48671;48.922;2.346;2023-06-10T12:49:58;100887.50;;;32.75;32.07
62600;BME280;48671;48.922;2.346;2023-06-10T12:52:24;100884.28;;;32.51;32.73
62600;BME280;48671;48.922;2.346;2023-06-10T12:54:50;100883.50;;;32.29;32.29
62600;BME280;48671;48.922;2.346;2023-06-10T12:57:16;100884.47;;;32.15;32.68
62600;BME280;48671;48.922;2.346;2023-06-10T12:59:42;100880.03;;;32.07;32.54
62600;BME280;48671;48.922;2.346;2023-06-10T13:02:14;100875.84;;;32.33;32.39
62600;BME280;48671;48.922;2.346;2023-06-10T13:04:40;100881.09;;;32.41;32.90
62600;BME280;48671;48.922;2.346;2023-06-10T13:07:05;100874.63;;;32.70;31.92
62600;BME280;48671;48.922;2.346;2023-06-10T13:09:31;100875.38;;;33.05;30.95